Time;durP1;ratioP1;P1;durP2;ratioP2;P2;SDS_P1;SDS_P2;PMS_P1;PMS_P2;Temp;Humidity;BMP_temperature;BMP_pressure;BME280_temperature;BME280_humidity;BME280_pressure;Samples;Min_cycle;Max_cycle;Signal;HPM_P1;HPM_P2
2023/01/28 00:00:45;;;;;;;19.67;18.40;;;-1.50;97.80;;;;;;5098690;28;20549;-84
2023/01/28 00:03:11;;;;;;;19.25;18.00;;;-1.50;97.70;;;;;;5102930;28;20024;-86
2023/01/28 00:05:37;;;;;;;15.55;14.32;;;-1.40;98.00;;;;;;5095657;28;20059;-84
2023/01/28 00:08:02;;;;;;;17.35;16.15;;;-1.40;98.30;;;;;;5100373;28;20055;-84
2023/01/28 00:10:28;;;;;;;9.70;9.05;;;-1.30;98.50;;;;;;5099537;28;20035;-85
2023/01/28 00:12:53;;;;;;;17.60;16.45;;;-1.40;98.70;;;;;;5099761;28;20497;-84
2023/01/28 00:15:19;;;;;;;18.45;17.25;;;-1.30;98.70;;;;;;5085104;28;20513;-84
2023/01/28 00:17:45;;;;;;;9.73;8.90;;;-1.30;98.60;;;;;;5097388;28;20058;-84
2023/01/28 00:20:11;;;;;;;18.25;17.13;;;-1.40;98.40;;;;;;5105500;28;20039;-84
2023/01/28 00:22:36;;;;;;;17.45;16.27;;;-1.40;98.70;;;;;;5096559;28;20050;-85
2023/01/28 00:25:02;;;;;;;18.63;17.42;;;-1.40;98.60;;;;;;5099403;28;20039;-84
2023/01/28 00:27:29;;;;;;;17.70;15.95;;;-1.40;98.50;;;;;;5097273;28;20059;-85
2023/01/28 00:29:58;;;;;;;17.05;15.95;;;-1.40;98.30;;;;;;5096478;28;20059;-84
2023/01/28 00:32:23;;;;;;;19.08;17.63;;;-1.60;98.10;;;;;;5101232;28;20058;-84
2023/01/28 00:34:49;;;;;;;17.40;16.27;;;-1.60;98.10;;;;;;5094135;28;20056;-84
2023/01/28 00:37:15;;;;;;;15.07;14.05;;;-1.50;98.20;;;;;;5104918;28;20527;-84
2023/01/28 00:39:40;;;;;;;18.58;17.35;;;-1.50;98.70;;;;;;5099614;28;20050;-84
2023/01/28 00:42:06;;;;;;;17.13;16.02;;;-1.50;98.60;;;;;;5095408;28;20039;-84
2023/01/28 00:44:32;;;;;;;15.77;14.85;;;-1.40;98.50;;;;;;5101615;28;20481;-84
2023/01/28 00:46:57;;;;;;;19.42;18.23;;;-1.40;98.50;;;;;;5090985;28;20059;-84
2023/01/28 00:49:23;;;;;;;10.10;9.35;;;-1.50;98.70;;;;;;5097962;28;20107;-84
2023/01/28 00:51:49;;;;;;;11.13;10.35;;;-1.40;98.20;;;;;;5094201;28;20478;-84
2023/01/28 00:54:14;;;;;;;22.80;21.48;;;-1.40;98.40;;;;;;5092543;28;20043;-84
2023/01/28 00:56:40;;;;;;;19.45;18.33;;;-1.50;97.90;;;;;;5096172;28;20546;-84
2023/01/28 00:59:06;;;;;;;16.95;15.95;;;-1.50;98.00;;;;;;5092529;28;20036;-84
2023/01/28 01:01:32;;;;;;;16.92;15.63;;;-1.60;97.90;;;;;;5100923;28;20020;-84
2023/01/28 01:04:06;;;;;;;12.52;11.70;;;-1.60;97.90;;;;;;5094873;28;20032;-84
2023/01/28 01:06:37;;;;;;;16.73;15.35;;;-1.50;98.60;;;;;;5104600;28;20031;-84
2023/01/28 01:09:05;;;;;;;10.85;10.10;;;-1.50;98.20;;;;;;5100297;28;20051;-84
2023/01/28 01:11:31;;;;;;;10.32;9.43;;;-1.50;98.60;;;;;;5098195;28;20039;-84
2023/01/28 01:13:58;;;;;;;15.25;13.63;;;-1.40;98.50;;;;;;5098556;28;20024;-84
2023/01/28 01:16:27;;;;;;;5.10;4.70;;;-1.50;98.70;;;;;;5092931;28;20046;-83
2023/01/28 01:18:53;;;;;;;15.55;14.57;;;-1.50;98.60;;;;;;5098780;28;20024;-84
2023/01/28 01:21:22;;;;;;;12.70;11.70;;;-1.50;98.70;;;;;;5093771;28;20047;-84
2023/01/28 01:23:48;;;;;;;13.30;12.20;;;-1.40;98.60;;;;;;5101949;28;20396;-84
2023/01/28 01:26:17;;;;;;;16.90;15.90;;;-1.30;98.60;;;;;;5100098;28;20039;-83
2023/01/28 01:28:43;;;;;;;17.67;16.58;;;-1.30;98.40;;;;;;5097520;28;20024;-83
2023/01/28 01:31:15;;;;;;;22.15;20.92;;;-1.40;98.10;;;;;;5097703;28;20040;-83
2023/01/28 01:33:45;;;;;;;17.70;16.50;;;-1.50;97.90;;;;;;5095175;28;20020;-84
2023/01/28 01:36:13;;;;;;;16.30;15.23;;;-1.50;97.90;;;;;;5100885;28;20031;-83
2023/01/28 01:38:39;;;;;;;12.32;11.52;;;-1.60;98.00;;;;;;5097698;28;20052;-84
2023/01/28 01:41:07;;;;;;;16.88;15.90;;;-1.40;98.50;;;;;;5100683;28;20036;-83
2023/01/28 01:44:00;;;;;;;10.20;9.10;;;-1.40;98.40;;;;;;5099474;28;20039;-84
2023/01/28 01:46:31;;;;;;;13.20;12.23;;;-1.40;98.20;;;;;;5096781;28;20031;-84
2023/01/28 01:49:05;;;;;;;15.63;14.52;;;-1.40;98.20;;;;;;5091525;28;20065;-84
2023/01/28 01:51:33;;;;;;;9.43;8.75;;;-1.40;98.40;;;;;;5093131;28;20500;-84
2023/01/28 01:54:00;;;;;;;10.23;9.57;;;-1.30;98.00;;;;;;5094658;28;20032;-84
2023/01/28 01:56:31;;;;;;;10.60;9.60;;;-1.40;98.00;;;;;;5067301;28;20031;-83
2023/01/28 01:58:58;;;;;;;15.82;14.70;;;-1.50;97.80;;;;;;5098255;28;20504;-84
2023/01/28 02:01:28;;;;;;;12.93;11.95;;;-1.50;97.90;;;;;;5066913;28;20032;-83
2023/01/28 02:03:58;;;;;;;16.77;15.77;;;-1.50;98.10;;;;;;5081607;28;20399;-85
2023/01/28 02:06:25;;;;;;;20.13;18.65;;;-1.50;98.40;;;;;;5089069;28;20262;-84
2023/01/28 02:08:54;;;;;;;18.88;17.58;;;-1.60;98.30;;;;;;5081528;28;20036;-85
2023/01/28 02:11:23;;;;;;;15.88;14.68;;;-1.50;98.50;;;;;;5078276;28;20032;-84
2023/01/28 02:13:53;;;;;;;9.45;8.90;;;-1.50;98.60;;;;;;5076050;28;20028;-84
2023/01/28 02:16:19;;;;;;;16.43;14.93;;;-1.40;98.30;;;;;;5077379;28;20033;-83
2023/01/28 02:18:45;;;;;;;14.68;13.60;;;-1.40;98.30;;;;;;5078574;28;20067;-84
2023/01/28 02:21:35;;;;;;;16.60;15.23;;;-1.40;98.40;;;;;;5092516;28;20064;-84
2023/01/28 02:24:24;;;;;;;12.65;11.82;;;-1.40;97.90;;;;;;5081216;28;20568;-84
2023/01/28 02:27:41;;;;;;;14.50;13.45;;;-1.50;98.10;;;;;;5093342;28;20023;-84
2023/01/28 02:30:16;;;;;;;10.48;9.52;;;-1.50;98.50;;;;;;5064891;28;20069;-84
2023/01/28 02:32:44;;;;;;;16.33;15.15;;;-1.40;98.40;;;;;;5096265;28;20020;-86
2023/01/28 02:35:10;;;;;;;14.55;13.30;;;-1.40;98.40;;;;;;5106056;28;20077;-84
2023/01/28 02:37:52;;;;;;;55.75;52.53;;;-1.40;98.40;;;;;;5103419;28;20035;-85
2023/01/28 02:40:28;;;;;;;12.93;11.98;;;-1.50;98.50;;;;;;5103327;28;20897;-84
2023/01/28 02:42:55;;;;;;;16.05;14.93;;;-1.50;98.70;;;;;;5094270;28;20039;-85
2023/01/28 02:47:56;;;;;;;28.33;26.65;;;-1.50;98.70;;;;;;5107618;28;20034;-84
2023/01/28 02:48:12;;;;;;;15.25;14.05;;;-1.50;98.50;;;;;;5096786;28;20032;-84
2023/01/28 02:51:21;;;;;;;15.90;14.77;;;-1.50;98.30;;;;;;5093084;28;20105;-84
2023/01/28 02:54:10;;;;;;;25.65;23.83;;;-1.60;98.30;;;;;;5085993;28;20435;-84
2023/01/28 02:56:59;;;;;;;11.98;10.88;;;-1.70;98.30;;;;;;5099171;28;20038;-86
2023/01/28 02:59:37;;;;;;;13.73;12.48;;;-1.50;98.70;;;;;;5079708;28;20036;-86
2023/01/28 03:02:22;;;;;;;13.25;12.07;;;-1.50;98.80;;;;;;5093456;28;20065;-86
2023/01/28 03:05:25;;;;;;;80.97;76.93;;;-1.40;98.70;;;;;;5114043;27;20104;-84
2023/01/28 03:07:51;;;;;;;30.05;27.95;;;-1.50;98.60;;;;;;5099072;28;20042;-84
2023/01/28 03:10:21;;;;;;;12.88;11.73;;;-1.60;98.60;;;;;;5104371;28;20031;-85
2023/01/28 03:38:47;;;;;;;11.88;11.07;;;-1.50;98.80;;;;;;5105445;28;20039;-85
2023/01/28 03:41:19;;;;;;;12.07;11.02;;;-1.40;98.60;;;;;;5104968;28;20028;-84
2023/01/28 03:43:46;;;;;;;7.93;7.45;;;-1.40;98.50;;;;;;5106048;28;20027;-84
2023/01/28 03:46:12;;;;;;;13.63;12.43;;;-1.40;98.40;;;;;;5091939;28;20086;-84
2023/01/28 03:48:37;;;;;;;16.15;14.80;;;-1.40;98.80;;;;;;5105607;28;20036;-84
2023/01/28 03:51:03;;;;;;;25.30;23.95;;;-1.50;98.20;;;;;;5100968;28;20461;-84
2023/01/28 03:53:29;;;;;;;16.70;15.60;;;-1.60;98.20;;;;;;5098842;28;20897;-84
2023/01/28 03:55:58;;;;;;;14.95;13.90;;;-1.60;98.50;;;;;;5102212;28;20131;-84
2023/01/28 04:01:09;;;;;;;9.52;8.98;;;-1.40;98.80;;;;;;5102657;28;20532;-84
2023/01/28 04:03:35;;;;;;;6.35;5.85;;;-1.30;98.50;;;;;;5095467;28;20040;-84
2023/01/28 04:06:04;;;;;;;47.20;43.95;;;-1.30;98.30;;;;;;5103606;28;20545;-85
2023/01/28 04:08:30;;;;;;;16.25;14.93;;;-1.40;98.20;;;;;;5097663;28;20557;-84
2023/01/28 04:10:56;;;;;;;8.80;8.10;;;-1.40;98.40;;;;;;5099269;28;20038;-84
2023/01/28 04:13:21;;;;;;;14.25;13.48;;;-1.50;98.40;;;;;;5102326;28;20036;-84
2023/01/28 04:15:48;;;;;;;15.50;14.45;;;-1.40;98.30;;;;;;5099700;28;20517;-84
2023/01/28 04:18:14;;;;;;;15.98;15.00;;;-1.30;98.40;;;;;;5104448;28;20036;-86
2023/01/28 04:20:40;;;;;;;19.38;18.05;;;-1.30;98.10;;;;;;5096836;28;20032;-86
2023/01/28 04:23:10;;;;;;;13.77;12.82;;;-1.50;97.30;;;;;;5105186;28;20050;-86
2023/01/28 04:25:35;;;;;;;16.80;15.52;;;-1.60;97.90;;;;;;5099283;28;20063;-86
2023/01/28 04:28:01;;;;;;;12.95;12.10;;;-1.60;97.90;;;;;;5103320;28;20063;-85
2023/01/28 04:30:27;;;;;;;15.75;14.77;;;-1.60;97.90;;;;;;5099443;28;20070;-84
2023/01/28 04:32:53;;;;;;;10.20;9.45;;;-1.50;98.30;;;;;;5093892;28;20025;-84
2023/01/28 04:35:18;;;;;;;14.05;13.15;;;-1.30;98.40;;;;;;5105379;28;20032;-84
2023/01/28 04:37:44;;;;;;;13.68;12.75;;;-1.30;98.30;;;;;;5094990;28;20074;-85
2023/01/28 04:40:11;;;;;;;12.27;11.48;;;-1.30;98.30;;;;;;5101395;28;20062;-84
2023/01/28 04:42:37;;;;;;;14.90;13.98;;;-1.30;98.10;;;;;;5099511;28;20557;-84
2023/01/28 04:45:04;;;;;;;15.02;14.13;;;-1.40;97.70;;;;;;5077819;28;20118;-84
2023/01/28 04:47:30;;;;;;;9.80;9.00;;;-1.50;97.80;;;;;;5100042;28;20544;-84
2023/01/28 04:49:55;;;;;;;14.18;13.27;;;-1.60;98.40;;;;;;5094085;28;20036;-84
2023/01/28 04:52:21;;;;;;;12.95;12.05;;;-1.40;98.40;;;;;;5103669;28;20399;-85
2023/01/28 04:54:47;;;;;;;12.88;12.05;;;-1.40;98.40;;;;;;5097774;28;20020;-85
2023/01/28 04:57:12;;;;;;;14.18;13.02;;;-1.30;98.40;;;;;;5099952;28;20039;-85
2023/01/28 04:59:38;;;;;;;12.65;11.32;;;-1.40;98.40;;;;;;5100123;28;20486;-84
2023/01/28 05:02:04;;;;;;;22.33;20.73;;;-1.40;98.30;;;;;;5093620;28;20044;-84
2023/01/28 05:04:30;;;;;;;15.52;14.25;;;-1.40;98.40;;;;;;5088246;28;20749;-84
2023/01/28 05:06:57;;;;;;;15.38;14.48;;;-1.40;98.40;;;;;;5092914;28;20032;-84
2023/01/28 05:09:22;;;;;;;17.23;16.20;;;-1.50;98.00;;;;;;5100387;28;20035;-85
2023/01/28 05:11:48;;;;;;;10.77;9.90;;;-1.50;97.90;;;;;;5090492;28;20031;-83
2023/01/28 05:14:14;;;;;;;13.70;12.68;;;-1.50;98.50;;;;;;5098079;28;20107;-84
2023/01/28 05:16:40;;;;;;;18.15;17.05;;;-1.30;98.50;;;;;;5100568;28;20409;-87
2023/01/28 05:19:05;;;;;;;13.32;12.52;;;-1.40;98.50;;;;;;5090449;28;20024;-84
2023/01/28 05:21:31;;;;;;;16.65;15.30;;;-1.40;98.70;;;;;;5082659;28;20043;-83
2023/01/28 05:23:56;;;;;;;16.75;15.70;;;-1.30;98.70;;;;;;5078998;28;20036;-83
2023/01/28 05:26:22;;;;;;;11.52;10.60;;;-1.30;98.40;;;;;;5097054;28;20039;-83
2023/01/28 05:28:50;;;;;;;13.43;12.35;;;-1.30;98.30;;;;;;5101532;28;20348;-83
2023/01/28 05:31:15;;;;;;;11.82;11.07;;;-1.30;98.50;;;;;;5100171;28;20039;-84
2023/01/28 05:33:41;;;;;;;11.50;10.77;;;-1.30;98.40;;;;;;5099945;28;20470;-84
2023/01/28 05:36:07;;;;;;;14.93;14.02;;;-1.30;98.50;;;;;;5096103;28;20055;-84
2023/01/28 05:38:33;;;;;;;13.52;12.55;;;-1.30;98.40;;;;;;5101789;28;20382;-84
2023/01/28 05:40:58;;;;;;;97.57;91.07;;;-1.40;97.70;;;;;;5095794;28;20781;-84
2023/01/28 05:43:24;;;;;;;12.55;11.82;;;-1.50;97.90;;;;;;5097450;28;20042;-84
2023/01/28 05:45:50;;;;;;;17.75;16.60;;;-1.50;97.70;;;;;;5133750;27;20844;-84
2023/01/28 05:48:15;;;;;;;14.85;13.88;;;-1.60;97.90;;;;;;5094479;28;20141;-84
2023/01/28 05:50:41;;;;;;;13.98;13.05;;;-1.60;98.30;;;;;;5100636;28;20044;-84
2023/01/28 05:53:08;;;;;;;13.98;13.07;;;-1.40;98.40;;;;;;5074624;28;20047;-84
2023/01/28 05:55:34;;;;;;;17.83;16.60;;;-1.40;98.50;;;;;;5104967;28;20393;-84
2023/01/28 05:57:59;;;;;;;15.07;14.10;;;-1.30;98.30;;;;;;5078600;28;20409;-84
2023/01/28 06:00:25;;;;;;;39.70;37.13;;;-1.30;98.10;;;;;;5095332;28;20023;-85
2023/01/28 06:02:51;;;;;;;22.20;20.83;;;-1.30;97.90;;;;;;5100937;28;20063;-85
2023/01/28 06:05:17;;;;;;;12.73;11.73;;;-1.30;97.80;;;;;;5097173;28;20082;-85
2023/01/28 06:07:44;;;;;;;14.20;13.25;;;-1.20;97.70;;;;;;5103535;28;20508;-84
2023/01/28 06:10:10;;;;;;;15.82;14.75;;;-1.20;97.90;;;;;;5094536;28;20036;-84
2023/01/28 06:12:36;;;;;;;14.30;13.45;;;-1.30;97.90;;;;;;5124722;27;20485;-85
2023/01/28 06:15:02;;;;;;;13.93;12.95;;;-1.30;97.90;;;;;;5096894;28;20032;-85
2023/01/28 06:17:28;;;;;;;11.75;11.10;;;-1.50;97.80;;;;;;5088125;28;20036;-84
2023/01/28 06:19:54;;;;;;;12.73;11.93;;;-1.50;97.50;;;;;;5098497;28;20114;-84
2023/01/28 06:22:20;;;;;;;80.40;74.07;;;-1.40;97.40;;;;;;5093764;28;20070;-84
2023/01/28 06:24:45;;;;;;;12.65;11.77;;;-1.50;97.70;;;;;;5102729;28;20800;-84
2023/01/28 06:27:11;;;;;;;13.93;13.13;;;-1.40;97.80;;;;;;5094742;28;20040;-85
2023/01/28 06:29:37;;;;;;;14.05;13.10;;;-1.30;97.90;;;;;;5097262;28;20745;-84
2023/01/28 06:32:03;;;;;;;13.65;12.82;;;-1.30;97.90;;;;;;5080257;28;20486;-86
2023/01/28 06:34:29;;;;;;;15.80;14.70;;;-1.30;97.80;;;;;;5090758;28;20023;-84
2023/01/28 06:36:55;;;;;;;14.77;13.65;;;-1.40;97.60;;;;;;5098268;28;20034;-85
2023/01/28 06:39:21;;;;;;;15.93;14.98;;;-1.50;97.10;;;;;;5077671;28;20412;-84
2023/01/28 06:41:50;;;;;;;10.57;9.85;;;-1.60;97.10;;;;;;5097012;28;20028;-84
2023/01/28 06:44:15;;;;;;;13.52;12.48;;;-1.50;97.70;;;;;;5094971;28;20036;-84
2023/01/28 06:46:41;;;;;;;14.63;13.65;;;-1.40;97.80;;;;;;5094575;28;20035;-85
2023/01/28 06:49:07;;;;;;;14.45;13.43;;;-1.40;97.80;;;;;;5102334;28;20030;-84
2023/01/28 06:51:33;;;;;;;14.18;13.05;;;-1.30;97.80;;;;;;5099950;28;20028;-84
2023/01/28 06:53:59;;;;;;;10.20;9.32;;;-1.30;97.70;;;;;;5082320;28;20047;-84
2023/01/28 06:56:24;;;;;;;11.60;10.77;;;-1.30;97.50;;;;;;5073487;28;20115;-81
2023/01/28 06:58:50;;;;;;;9.05;8.23;;;-1.40;97.20;;;;;;5090784;28;20574;-80
2023/01/28 07:01:16;;;;;;;10.50;9.68;;;-1.40;97.10;;;;;;5088704;28;20581;-81
2023/01/28 07:03:42;;;;;;;10.30;9.45;;;-1.50;97.30;;;;;;5092671;28;20502;-80
2023/01/28 07:06:09;;;;;;;12.80;11.80;;;-1.30;97.70;;;;;;5101680;28;20058;-76
2023/01/28 07:08:36;;;;;;;6.75;6.20;;;-1.30;97.60;;;;;;5094111;28;20029;-79
2023/01/28 07:11:03;;;;;;;14.38;13.30;;;-1.20;97.50;;;;;;5093717;28;20040;-78
2023/01/28 07:13:29;;;;;;;10.80;9.80;;;-1.20;97.50;;;;;;5095225;28;20071;-72
2023/01/28 07:15:54;;;;;;;16.52;15.07;;;-1.10;97.40;;;;;;5100275;28;20442;-74
2023/01/28 07:18:20;;;;;;;13.50;12.63;;;-1.20;97.40;;;;;;5093050;28;20523;-74
2023/01/28 07:20:46;;;;;;;12.10;11.00;;;-1.20;96.80;;;;;;5103451;28;20028;-74
2023/01/28 07:23:11;;;;;;;12.65;11.80;;;-1.30;96.60;;;;;;5101409;28;20051;-74
2023/01/28 07:25:37;;;;;;;9.95;8.77;;;-1.30;96.80;;;;;;5093700;28;20040;-74
2023/01/28 07:28:04;;;;;;;12.65;11.70;;;-1.30;97.40;;;;;;5099272;28;20127;-70
2023/01/28 07:30:30;;;;;;;9.35;8.48;;;-1.20;97.10;;;;;;5103745;28;20035;-79
2023/01/28 07:32:57;;;;;;;10.02;9.13;;;-1.30;97.40;;;;;;5101008;28;20040;-77
2023/01/28 07:35:24;;;;;;;11.77;11.02;;;-1.10;97.20;;;;;;5078669;28;20027;-77
2023/01/28 07:37:54;;;;;;;10.35;9.35;;;-1.10;97.20;;;;;;5096132;28;20020;-77
2023/01/28 07:40:20;;;;;;;10.40;8.77;;;-1.00;96.80;;;;;;5102147;28;20508;-77
2023/01/28 07:42:46;;;;;;;30.60;28.92;;;-1.10;96.60;;;;;;5080383;28;20047;-77
2023/01/28 07:45:12;;;;;;;10.25;9.45;;;-1.20;96.70;;;;;;5106351;28;20027;-77
2023/01/28 07:47:38;;;;;;;6.57;5.93;;;-1.10;96.90;;;;;;5101245;28;20066;-76
2023/01/28 07:50:04;;;;;;;11.02;10.23;;;-1.00;97.00;;;;;;5099026;28;20055;-77
2023/01/28 07:52:37;;;;;;;14.02;12.98;;;-1.10;96.80;;;;;;5101848;28;20125;-76
2023/01/28 07:55:03;;;;;;;13.23;12.23;;;-1.10;96.80;;;;;;5096273;28;20077;-78
2023/01/28 07:57:29;;;;;;;12.90;12.05;;;-1.10;97.00;;;;;;5083621;28;20040;-77
2023/01/28 07:59:54;;;;;;;13.48;12.55;;;-0.90;96.50;;;;;;5090533;28;20872;-76
2023/01/28 08:02:20;;;;;;;7.97;7.38;;;-0.90;96.40;;;;;;5099659;28;20103;-77
2023/01/28 08:04:46;;;;;;;7.97;7.38;;;-0.90;95.90;;;;;;5088987;28;20037;-77
2023/01/28 08:07:12;;;;;;;7.97;7.25;;;-0.90;96.00;;;;;;5095470;28;20070;-77
2023/01/28 08:09:37;;;;;;;8.93;7.90;;;-0.90;95.50;;;;;;5102308;28;20475;-77
2023/01/28 08:12:04;;;;;;;10.93;9.93;;;-0.80;96.50;;;;;;5094327;28;20032;-76
2023/01/28 08:14:30;;;;;;;10.32;9.43;;;-0.80;96.30;;;;;;5098032;28;20027;-76
2023/01/28 08:16:56;;;;;;;5.57;5.07;;;-0.60;96.10;;;;;;5093285;28;20024;-75
2023/01/28 08:19:22;;;;;;;10.00;9.25;;;-0.50;95.30;;;;;;5090141;28;20024;-74
2023/01/28 08:21:49;;;;;;;9.32;6.80;;;-0.50;95.60;;;;;;5092761;28;20035;-76
2023/01/28 08:24:16;;;;;;;8.68;7.78;;;-0.50;95.20;;;;;;5099028;28;20100;-73
2023/01/28 08:26:42;;;;;;;12.20;10.57;;;-0.60;95.00;;;;;;5090268;28;20033;-76
2023/01/28 08:29:08;;;;;;;8.05;7.25;;;-0.70;95.40;;;;;;5072003;28;20063;-75
2023/01/28 08:31:34;;;;;;;7.50;6.80;;;-0.70;95.60;;;;;;5090006;28;20040;-74
2023/01/28 08:34:01;;;;;;;7.95;6.00;;;-0.70;95.30;;;;;;5093415;28;20067;-75
2023/01/28 08:36:26;;;;;;;8.45;7.07;;;-0.70;95.40;;;;;;5093809;28;20569;-75
2023/01/28 08:38:53;;;;;;;7.38;6.75;;;-0.80;95.60;;;;;;5095851;28;20103;-76
2023/01/28 08:41:21;;;;;;;16.00;14.93;;;-0.70;95.50;;;;;;5072610;28;20036;-76
2023/01/28 08:43:47;;;;;;;7.35;6.75;;;-0.80;95.70;;;;;;5073566;28;20031;-76
2023/01/28 08:46:13;;;;;;;7.20;6.60;;;-0.60;95.90;;;;;;5118895;27;20455;-76
2023/01/28 08:48:38;;;;;;;7.40;6.72;;;-0.40;95.40;;;;;;5089028;28;20090;-76
2023/01/28 08:51:04;;;;;;;5.82;5.32;;;-0.60;95.20;;;;;;5090866;28;20035;-76
2023/01/28 08:53:30;;;;;;;83.47;75.90;;;-0.50;95.00;;;;;;5085182;28;20505;-76
2023/01/28 08:55:55;;;;;;;8.10;7.45;;;-0.70;95.10;;;;;;5113268;27;20607;-75
2023/01/28 08:58:22;;;;;;;8.20;7.03;;;-0.60;95.20;;;;;;5075699;28;20641;-76
2023/01/28 09:00:48;;;;;;;8.93;6.13;;;-0.70;95.20;;;;;;5098569;28;20074;-76
2023/01/28 09:03:15;;;;;;;7.57;6.47;;;-0.60;95.00;;;;;;5094930;28;20040;-76
2023/01/28 09:05:40;;;;;;;6.95;5.38;;;-0.50;94.80;;;;;;5095842;28;20036;-73
2023/01/28 09:08:12;;;;;;;4.75;4.35;;;-0.60;94.60;;;;;;5099104;28;20040;-78
2023/01/28 09:10:38;;;;;;;6.85;5.38;;;-0.60;95.00;;;;;;5091005;28;20123;-79
2023/01/28 09:13:05;;;;;;;7.07;5.93;;;-0.70;94.90;;;;;;5098946;28;20422;-79
2023/01/28 09:15:32;;;;;;;8.27;6.07;;;-0.60;95.10;;;;;;5095752;28;20485;-78
2023/01/28 09:17:58;;;;;;;11.70;11.00;;;-0.60;94.90;;;;;;5099676;28;20038;-78
2023/01/28 09:20:24;;;;;;;12.18;11.30;;;-0.50;94.90;;;;;;5097266;28;20032;-80
2023/01/28 09:22:50;;;;;;;8.45;6.57;;;-0.40;94.90;;;;;;5095879;28;20076;-79
2023/01/28 09:25:15;;;;;;;7.63;5.93;;;-0.30;94.40;;;;;;5090584;28;20081;-79
2023/01/28 09:27:43;;;;;;;10.07;9.43;;;-0.30;94.30;;;;;;5089857;28;20039;-80
2023/01/28 09:30:09;;;;;;;7.40;5.60;;;-0.40;94.70;;;;;;5087395;28;20050;-80
2023/01/28 09:32:35;;;;;;;6.22;5.60;;;-0.40;94.50;;;;;;5098034;28;20030;-80
2023/01/28 09:35:02;;;;;;;6.90;6.15;;;-0.30;94.30;;;;;;5093485;28;20027;-80
2023/01/28 09:37:28;;;;;;;6.18;5.68;;;-0.40;94.50;;;;;;5097159;28;20547;-79
2023/01/28 09:39:54;;;;;;;6.30;5.80;;;-0.40;94.30;;;;;;5082626;28;20060;-78
2023/01/28 09:42:42;;;;;;;9.80;9.00;;;-0.40;94.50;;;;;;5098493;28;20036;-73
2023/01/28 09:45:33;;;;;;;7.00;6.00;;;-0.50;94.30;;;;;;5092833;28;20050;-74
2023/01/28 11:49:12;;;;;;;4.05;3.75;;;1.20;89.80;;;;;;5102122;22;20070;-79
2023/01/28 11:51:44;;;;;;;3.45;3.03;;;1.60;87.10;;;;;;5098315;28;20024;-77
2023/01/28 11:54:35;;;;;;;3.83;3.53;;;1.70;85.70;;;;;;5088041;28;20119;-80
2023/01/28 11:57:10;;;;;;;3.70;3.20;;;1.90;84.30;;;;;;5068595;28;20028;-83
2023/01/28 11:59:43;;;;;;;4.47;3.63;;;1.90;83.50;;;;;;5091213;28;20024;-82
2023/01/28 12:02:28;;;;;;;7.60;6.97;;;1.70;83.70;;;;;;5087453;28;20029;-81
2023/01/28 12:05:21;;;;;;;2.75;2.55;;;1.40;85.00;;;;;;5074875;28;20020;-80
2023/01/28 12:07:55;;;;;;;2.78;2.58;;;1.60;85.80;;;;;;5082346;28;20032;-80
2023/01/28 12:10:37;;;;;;;3.35;3.05;;;1.30;86.80;;;;;;5071330;28;20054;-80
2023/01/28 12:13:14;;;;;;;3.72;3.33;;;1.30;86.10;;;;;;5086706;28;20020;-85
2023/01/28 12:16:23;;;;;;;3.38;3.08;;;1.10;87.30;;;;;;5088238;28;20028;-83
2023/01/28 12:19:03;;;;;;;3.58;3.25;;;1.30;87.20;;;;;;5091236;28;20027;-82
2023/01/28 12:21:56;;;;;;;2.90;2.65;;;1.30;86.60;;;;;;5086634;28;20113;-80
2023/01/28 12:24:37;;;;;;;3.90;3.50;;;1.30;86.50;;;;;;5085324;28;20028;-82
2023/01/28 12:27:21;;;;;;;;;;;1.30;86.50;;;;;;5087324;28;20031;-78
2023/01/28 12:30:18;;;;;;;5.57;3.33;;;1.30;86.70;;;;;;5091101;28;19923;-83
2023/01/28 12:32:58;;;;;;;4.68;3.45;;;1.40;86.70;;;;;;5068392;28;20060;-80
2023/01/28 12:35:36;;;;;;;4.43;3.20;;;1.40;87.00;;;;;;5068097;28;20093;-81
2023/01/28 12:38:14;;;;;;;6.03;4.78;;;1.30;86.70;;;;;;5068366;28;20066;-83
2023/01/28 12:41:05;;;;;;;5.20;4.15;;;1.20;87.60;;;;;;5060619;28;20549;-81
2023/01/28 12:43:56;;;;;;;3.90;3.55;;;1.20;86.70;;;;;;5081482;28;20442;-86
2023/01/28 12:46:36;;;;;;;3.70;3.40;;;1.40;86.60;;;;;;5093427;28;20555;-80
2023/01/28 12:49:21;;;;;;;3.92;3.40;;;1.50;85.40;;;;;;5074335;28;20048;-86
2023/01/28 12:52:02;;;;;;;4.65;3.90;;;1.50;86.40;;;;;;5061627;28;20028;-84
2023/01/28 12:54:43;;;;;;;4.18;3.70;;;1.80;84.50;;;;;;5066620;28;20033;-82
2023/01/28 12:57:18;;;;;;;7.55;4.57;;;1.80;84.50;;;;;;5067221;28;20068;-83
2023/01/28 13:00:12;;;;;;;4.38;3.92;;;1.70;84.30;;;;;;5065362;28;20021;-80
2023/01/28 13:02:44;;;;;;;4.25;3.65;;;1.60;85.50;;;;;;5055269;28;20499;-81
2023/01/28 13:05:12;;;;;;;4.32;3.55;;;1.30;84.90;;;;;;5047910;28;20033;-79
2023/01/28 13:07:54;;;;;;;3.60;3.30;;;1.00;86.80;;;;;;5066508;28;20031;-81
2023/01/28 13:10:28;;;;;;;5.75;4.00;;;1.10;87.80;;;;;;5047714;28;20104;-85
2023/01/28 13:12:56;;;;;;;4.22;3.83;;;1.30;86.90;;;;;;5037775;28;20748;-85
2023/01/28 13:15:23;;;;;;;5.00;3.67;;;1.40;86.20;;;;;;5067713;28;20482;-82
2023/01/28 13:17:57;;;;;;;3.85;3.47;;;1.30;85.80;;;;;;5065130;28;20028;-85
2023/01/28 13:20:49;;;;;;;4.97;4.47;;;1.30;85.20;;;;;;5068537;28;20036;-84
2023/01/28 13:23:36;;;;;;;2.60;2.38;;;1.40;85.50;;;;;;5061250;28;20057;-84
2023/01/28 13:26:17;;;;;;;5.10;4.68;;;1.70;83.00;;;;;;5052745;28;20068;-83
2023/01/28 13:28:48;;;;;;;2.13;2.03;;;1.60;83.00;;;;;;5067663;28;20083;-86
2023/01/28 13:31:16;;;;;;;3.75;3.35;;;1.60;80.80;;;;;;5064734;28;20479;-83
2023/01/28 13:34:04;;;;;;;4.63;2.75;;;1.70;81.50;;;;;;5069031;28;20036;-84
2023/01/28 13:36:35;;;;;;;3.35;3.00;;;1.70;78.60;;;;;;5046851;28;20025;-81
2023/01/28 13:39:13;;;;;;;7.78;3.17;;;1.80;77.90;;;;;;5041177;28;20032;-82
2023/01/28 13:41:43;;;;;;;2.45;2.28;;;2.00;77.70;;;;;;5065161;28;20035;-81
2023/01/28 13:44:28;;;;;;;2.90;2.70;;;2.10;77.00;;;;;;5067543;28;20040;-83
2023/01/28 13:46:57;;;;;;;6.68;6.15;;;2.20;78.10;;;;;;5045906;28;20044;-81
2023/01/28 13:49:44;;;;;;;6.57;3.30;;;2.10;77.70;;;;;;5063159;28;20052;-83
2023/01/28 13:52:10;;;;;;;4.32;3.28;;;1.80;79.60;;;;;;5083094;28;20043;-85
2023/01/28 13:55:11;;;;;;;5.15;3.60;;;1.50;81.10;;;;;;5076104;28;20393;-88
2023/01/28 13:58:05;;;;;;;6.15;4.05;;;1.20;83.00;;;;;;5042363;28;20109;-91
2023/01/28 14:00:48;;;;;;;3.40;3.10;;;1.00;83.90;;;;;;5087656;28;20030;-90
2023/01/28 14:03:42;;;;;;;4.22;3.55;;;0.90;84.50;;;;;;5069513;28;20032;-90
2023/01/28 14:06:33;;;;;;;6.13;3.90;;;0.80;85.70;;;;;;5096746;28;20127;-91
2023/01/28 14:09:04;;;;;;;4.28;3.58;;;0.90;86.70;;;;;;5071343;28;20202;-91
2023/01/28 14:11:30;;;;;;;4.45;3.88;;;0.90;86.40;;;;;;5068889;28;20027;-90
2023/01/28 14:14:22;;;;;;;3.58;3.28;;;1.00;86.40;;;;;;5086823;28;20035;-90
2023/01/28 14:17:12;;;;;;;3.63;3.30;;;1.20;87.30;;;;;;5064497;28;20035;-91
2023/01/28 14:19:39;;;;;;;3.78;3.42;;;0.90;86.30;;;;;;5086972;28;20028;-91
2023/01/28 14:22:07;;;;;;;4.97;3.72;;;1.00;86.90;;;;;;5071572;28;20027;-91
2023/01/28 14:24:35;;;;;;;5.75;4.38;;;1.00;87.30;;;;;;5088611;28;20024;-91
2023/01/28 14:27:29;;;;;;;4.80;4.28;;;0.80;87.60;;;;;;5072184;28;20028;-90
2023/01/28 14:30:19;;;;;;;4.90;3.65;;;0.70;88.10;;;;;;5086462;28;20032;-91
2023/01/28 14:32:51;;;;;;;6.82;5.80;;;0.80;88.10;;;;;;5086590;28;20089;-92
2023/01/28 14:35:29;;;;;;;5.30;4.50;;;0.60;88.10;;;;;;5063721;28;20071;-91
2023/01/28 14:37:56;;;;;;;5.15;3.97;;;0.50;88.80;;;;;;5068660;28;20024;-91
2023/01/28 14:40:22;;;;;;;4.72;4.28;;;0.40;89.60;;;;;;5070751;28;20036;-91
2023/01/28 14:42:52;;;;;;;6.05;4.28;;;0.30;89.10;;;;;;5072461;28;20119;-91
2023/01/28 14:45:37;;;;;;;5.38;4.47;;;0.40;89.40;;;;;;5067376;28;20393;-91
2023/01/28 14:48:27;;;;;;;5.28;4.28;;;0.40;89.20;;;;;;5071053;28;20059;-91
2023/01/28 14:51:02;;;;;;;4.18;3.78;;;0.40;90.20;;;;;;5077368;28;20031;-92
2023/01/28 14:53:58;;;;;;;4.45;4.05;;;0.50;90.10;;;;;;5066022;28;20066;-90
2023/01/28 14:56:47;;;;;;;4.85;3.90;;;0.40;90.40;;;;;;5090637;28;20028;-91
2023/01/28 14:59:29;;;;;;;5.93;5.32;;;0.40;90.30;;;;;;5099297;28;20036;-92
2023/01/28 15:01:58;;;;;;;4.15;3.60;;;0.30;90.20;;;;;;5070826;28;20028;-90
2023/01/28 15:04:29;;;;;;;4.75;3.95;;;0.30;90.40;;;;;;5071065;28;20071;-91
2023/01/28 15:06:56;;;;;;;5.90;4.53;;;0.30;91.00;;;;;;5072406;28;20028;-91
2023/01/28 15:09:22;;;;;;;5.75;3.92;;;0.50;90.90;;;;;;5052680;28;20575;-90
2023/01/28 15:11:51;;;;;;;4.72;4.32;;;0.50;90.50;;;;;;5102546;28;20075;-91
2023/01/28 15:14:31;;;;;;;4.28;3.88;;;0.60;90.50;;;;;;5069279;28;20037;-89
2023/01/28 15:16:58;;;;;;;4.97;4.47;;;0.60;90.80;;;;;;5072721;28;20119;-83
2023/01/28 15:19:35;;;;;;;4.75;4.25;;;0.60;90.40;;;;;;5095705;28;20039;-81
2023/01/28 15:22:07;;;;;;;5.95;4.97;;;0.40;90.00;;;;;;5097568;28;20116;-83
2023/01/28 15:24:36;;;;;;;5.47;4.82;;;0.40;90.00;;;;;;5072532;28;20119;-83
2023/01/28 15:27:02;;;;;;;6.10;4.57;;;0.30;90.10;;;;;;5050082;28;20036;-78